createdAt,value
2023-05-15T00:00:12.421Z,9
2023-05-15T00:01:19.575Z,8
2023-05-15T00:02:26.453Z,8
2023-05-15T00:03:33.201Z,8
2023-05-15T00:04:39.948Z,8
2023-05-15T00:05:56.832Z,8
2023-05-15T00:07:03.663Z,9
2023-05-15T00:08:17.500Z,9
2023-05-15T00:09:24.323Z,9
2023-05-15T00:10:31.178Z,9
2023-05-15T00:11:37.980Z,8
2023-05-15T00:12:45.706Z,9
2023-05-15T00:13:52.529Z,8
2023-05-15T00:14:59.340Z,9
2023-05-15T00:16:08.735Z,8
2023-05-15T00:17:15.440Z,9
2023-05-15T00:18:23.387Z,9
2023-05-15T00:19:35.022Z,8
2023-05-15T00:20:41.893Z,8
2023-05-15T00:21:48.828Z,8
2023-05-15T00:22:57.596Z,8
2023-05-15T00:24:07.509Z,8
2023-05-15T00:25:14.320Z,9
2023-05-15T00:26:39.877Z,7
2023-05-15T00:27:46.692Z,8
2023-05-15T00:28:53.519Z,8
2023-05-15T00:30:30.552Z,8
2023-05-15T00:31:37.430Z,8
2023-05-15T00:32:44.307Z,8
2023-05-15T00:33:51.118Z,8
2023-05-15T00:34:57.970Z,8
2023-05-15T00:36:04.811Z,8
2023-05-15T00:37:11.917Z,7
2023-05-15T00:38:18.863Z,9
2023-05-15T00:39:25.613Z,8
2023-05-15T00:40:35.711Z,8
2023-05-15T00:41:42.505Z,8
2023-05-15T00:42:49.328Z,8
2023-05-15T00:43:56.301Z,7
2023-05-15T00:45:03.133Z,7
2023-05-15T00:46:10.283Z,7
2023-05-15T00:47:47.281Z,7
2023-05-15T00:48:53.981Z,7
2023-05-15T00:50:00.802Z,6
2023-05-15T00:51:07.877Z,7
2023-05-15T00:52:14.707Z,7
2023-05-15T00:53:21.540Z,6
2023-05-15T00:54:28.399Z,6
2023-05-15T00:56:11.368Z,6
2023-05-15T00:57:18.202Z,7
2023-05-15T00:58:25.075Z,6
2023-05-15T00:59:32.018Z,6
2023-05-15T01:00:38.827Z,6
2023-05-15T01:01:45.543Z,6
2023-05-15T01:02:52.395Z,6
2023-05-15T01:04:06.089Z,6
2023-05-15T01:05:12.868Z,6
2023-05-15T01:06:19.730Z,5
2023-05-15T01:07:33.428Z,5
2023-05-15T01:08:40.235Z,5
2023-05-15T01:09:49.682Z,5
2023-05-15T01:11:15.876Z,5
2023-05-15T01:12:24.965Z,5
2023-05-15T01:13:34.753Z,5
2023-05-15T01:14:41.575Z,4
2023-05-15T01:15:48.375Z,4
2023-05-15T01:16:58.804Z,4
2023-05-15T01:18:05.712Z,4
2023-05-15T01:19:12.551Z,4
2023-05-15T01:20:19.229Z,4
2023-05-15T01:21:26.017Z,4
2023-05-15T01:22:37.879Z,4
2023-05-15T01:24:24.548Z,4
2023-05-15T01:25:39.817Z,4
2023-05-15T01:26:57.487Z,4
2023-05-15T01:28:09.362Z,4
2023-05-15T01:29:16.208Z,4
2023-05-15T01:30:36.772Z,4
2023-05-15T01:31:43.639Z,4
2023-05-15T01:32:50.470Z,4
2023-05-15T01:33:57.283Z,4
2023-05-15T01:35:07.488Z,4
2023-05-15T01:36:20.769Z,4
2023-05-15T01:37:27.595Z,4
2023-05-15T01:38:34.463Z,3
2023-05-15T01:39:41.378Z,3
2023-05-15T01:40:48.179Z,3
2023-05-15T01:41:54.963Z,4
2023-05-15T01:43:01.767Z,3
2023-05-15T01:44:12.188Z,3
2023-05-15T01:45:21.531Z,3
2023-05-15T01:46:31.025Z,3
2023-05-15T01:47:42.565Z,3
2023-05-15T01:48:55.247Z,4
2023-05-15T01:50:40.943Z,4
2023-05-15T01:51:47.909Z,3
2023-05-15T01:52:54.702Z,3
2023-05-15T01:54:01.510Z,4
2023-05-15T01:55:19.805Z,3
2023-05-15T01:56:40.216Z,3
2023-05-15T01:58:04.765Z,3
2023-05-15T01:59:11.666Z,3
2023-05-15T02:00:41.231Z,3
2023-05-15T02:01:48.028Z,3
2023-05-15T02:02:54.947Z,3
2023-05-15T02:04:01.746Z,3
2023-05-15T02:05:08.420Z,3
2023-05-15T02:06:20.150Z,3
2023-05-15T02:07:27.058Z,3
2023-05-15T02:08:33.929Z,4
2023-05-15T02:09:40.685Z,3
2023-05-15T02:10:53.404Z,3
2023-05-15T02:12:00.325Z,4
2023-05-15T02:13:07.381Z,3
2023-05-15T02:14:14.182Z,4
2023-05-15T02:15:21.094Z,3
2023-05-15T02:16:27.912Z,4
2023-05-15T02:17:34.650Z,3
2023-05-15T02:18:41.535Z,4
2023-05-15T02:19:48.265Z,3
2023-05-15T02:20:55.048Z,3
2023-05-15T02:22:09.728Z,4
2023-05-15T02:23:16.554Z,4
2023-05-15T02:24:23.349Z,4
2023-05-15T02:25:30.255Z,4
2023-05-15T02:26:44.847Z,4
2023-05-15T02:27:59.422Z,3
2023-05-15T02:29:06.314Z,3
2023-05-15T02:30:13.216Z,4
2023-05-15T02:31:30.166Z,4
2023-05-15T02:32:42.059Z,4
2023-05-15T02:33:53.888Z,4
2023-05-15T02:35:06.889Z,4
2023-05-15T02:36:26.746Z,4
2023-05-15T02:37:36.287Z,4
2023-05-15T02:38:45.862Z,4
2023-05-15T02:39:52.750Z,4
2023-05-15T02:41:02.529Z,4
2023-05-15T02:42:09.405Z,4
2023-05-15T02:43:16.376Z,4
2023-05-15T02:44:23.160Z,4
2023-05-15T02:45:30.054Z,4
2023-05-15T02:46:36.765Z,5
2023-05-15T02:47:43.608Z,4
2023-05-15T02:48:50.462Z,5
2023-05-15T02:50:00.290Z,5
2023-05-15T02:51:07.321Z,5
2023-05-15T02:52:14.960Z,5
2023-05-15T02:53:21.835Z,5
2023-05-15T02:54:28.648Z,5
2023-05-15T02:55:35.576Z,4
2023-05-15T02:56:42.404Z,4
2023-05-15T02:57:49.224Z,4
2023-05-15T02:58:56.030Z,4
2023-05-15T03:00:02.990Z,4
2023-05-15T03:01:10.348Z,4
2023-05-15T03:02:17.122Z,4
2023-05-15T03:03:23.816Z,4
2023-05-15T03:04:30.619Z,3
2023-05-15T03:05:42.350Z,4
2023-05-15T03:06:50.234Z,4
2023-05-15T03:07:57.050Z,4
2023-05-15T03:09:03.951Z,4
2023-05-15T03:10:10.791Z,4
2023-05-15T03:11:17.670Z,4
2023-05-15T03:12:24.447Z,4
2023-05-15T03:13:31.530Z,4
2023-05-15T03:14:38.442Z,4
2023-05-15T03:15:45.233Z,3
2023-05-15T03:16:52.135Z,4
2023-05-15T03:18:04.854Z,4
2023-05-15T03:19:32.306Z,3
2023-05-15T03:20:39.180Z,4
2023-05-15T03:21:57.787Z,3
2023-05-15T03:23:06.587Z,4
2023-05-15T03:24:13.458Z,4
2023-05-15T03:25:20.262Z,4
2023-05-15T03:26:27.030Z,4
2023-05-15T03:27:36.002Z,3
2023-05-15T03:28:42.797Z,4
2023-05-15T03:29:59.417Z,4
2023-05-15T03:31:49.239Z,4
2023-05-15T03:32:55.951Z,4
2023-05-15T03:34:02.859Z,4
2023-05-15T03:35:09.666Z,4
2023-05-15T03:36:16.606Z,4
2023-05-15T03:37:23.433Z,4
2023-05-15T03:38:44.849Z,4
2023-05-15T03:39:51.747Z,4
2023-05-15T03:40:58.556Z,4
2023-05-15T03:42:05.622Z,4
2023-05-15T03:43:12.473Z,4
2023-05-15T03:44:19.344Z,4
2023-05-15T03:45:26.354Z,4
2023-05-15T03:46:32.943Z,4
2023-05-15T03:47:39.877Z,4
2023-05-15T03:48:46.630Z,4
2023-05-15T03:50:11.048Z,4
2023-05-15T03:51:17.883Z,4
2023-05-15T03:52:24.716Z,4
2023-05-15T03:53:31.643Z,4
2023-05-15T03:54:38.506Z,4
2023-05-15T03:55:45.339Z,4
2023-05-15T03:56:52.154Z,4
2023-05-15T03:57:58.977Z,4
2023-05-15T03:59:09.128Z,4
2023-05-15T04:00:17.681Z,4
2023-05-15T04:01:23.102Z,4
2023-05-15T04:02:30.009Z,4
2023-05-15T04:03:36.739Z,4
2023-05-15T04:04:43.617Z,4
2023-05-15T04:05:50.398Z,3
2023-05-15T04:06:57.195Z,4
2023-05-15T04:08:04.028Z,4
2023-05-15T04:09:15.775Z,4
2023-05-15T04:10:22.921Z,3
2023-05-15T04:11:29.999Z,4
2023-05-15T04:12:36.850Z,4
2023-05-15T04:13:48.697Z,4
2023-05-15T04:14:55.537Z,3
2023-05-15T04:16:02.405Z,4
2023-05-15T04:17:09.448Z,4
2023-05-15T04:18:18.705Z,4
2023-05-15T04:19:27.368Z,4
2023-05-15T04:20:43.925Z,3
2023-05-15T04:21:52.955Z,4
2023-05-15T04:22:59.762Z,4
2023-05-15T04:24:06.534Z,4
2023-05-15T04:25:18.297Z,4
2023-05-15T04:26:25.231Z,4
2023-05-15T04:27:32.042Z,4
2023-05-15T04:29:18.642Z,4
2023-05-15T04:30:25.547Z,4
2023-05-15T04:31:32.487Z,4
2023-05-15T04:32:39.291Z,4
2023-05-15T04:33:50.035Z,4
2023-05-15T04:34:56.658Z,4
2023-05-15T04:36:03.491Z,4
2023-05-15T04:37:10.665Z,4
2023-05-15T04:38:17.519Z,4
2023-05-15T04:39:24.328Z,4
2023-05-15T04:40:32.044Z,4
2023-05-15T04:41:59.374Z,4
2023-05-15T04:43:26.006Z,4
2023-05-15T04:44:32.671Z,3
2023-05-15T04:45:39.478Z,4
2023-05-15T04:46:46.370Z,4
2023-05-15T04:48:15.314Z,3
2023-05-15T04:49:22.148Z,4
2023-05-15T04:50:52.434Z,4
2023-05-15T04:51:59.431Z,3
2023-05-15T04:53:06.314Z,4
2023-05-15T04:54:24.929Z,4
2023-05-15T04:55:31.883Z,4
2023-05-15T04:57:31.981Z,4
2023-05-15T04:58:40.885Z,4
2023-05-15T04:59:47.626Z,3
2023-05-15T05:00:54.483Z,4
2023-05-15T05:02:01.414Z,3
2023-05-15T05:03:08.181Z,3
2023-05-15T05:04:15.083Z,4
2023-05-15T05:05:24.816Z,3
2023-05-15T05:06:31.577Z,3
2023-05-15T05:07:38.267Z,4
2023-05-15T05:08:45.049Z,4
2023-05-15T05:09:51.847Z,3
2023-05-15T05:10:58.630Z,3
2023-05-15T05:12:05.450Z,3
2023-05-15T05:13:12.280Z,3
2023-05-15T05:14:19.095Z,4
2023-05-15T05:15:26.324Z,3
2023-05-15T05:16:32.965Z,3
2023-05-15T05:17:39.812Z,3
2023-05-15T05:18:46.650Z,3
2023-05-15T05:19:53.485Z,3
2023-05-15T05:21:00.256Z,3
2023-05-15T05:22:13.980Z,3
2023-05-15T05:23:20.810Z,3
2023-05-15T05:24:27.760Z,3
2023-05-15T05:25:34.747Z,3
2023-05-15T05:26:43.045Z,3
2023-05-15T05:27:50.534Z,3
2023-05-15T05:28:57.346Z,3
2023-05-15T05:30:04.171Z,3
2023-05-15T05:31:11.353Z,3
2023-05-15T05:32:57.001Z,3
2023-05-15T05:34:03.784Z,3
2023-05-15T05:35:10.600Z,3
2023-05-15T05:36:17.478Z,3
2023-05-15T05:37:24.240Z,3
2023-05-15T05:38:30.941Z,3
2023-05-15T05:39:37.661Z,3
2023-05-15T05:40:44.615Z,3
2023-05-15T05:41:51.444Z,3
2023-05-15T05:42:58.185Z,3
2023-05-15T05:44:05.012Z,3
2023-05-15T05:45:11.841Z,3
2023-05-15T05:46:18.985Z,3
2023-05-15T05:47:25.916Z,3
2023-05-15T05:48:32.749Z,3
2023-05-15T05:49:39.487Z,3
2023-05-15T05:50:46.352Z,3
2023-05-15T05:51:54.207Z,3
2023-05-15T05:53:01.142Z,3
2023-05-15T05:54:07.982Z,3
2023-05-15T05:55:14.778Z,3
2023-05-15T05:56:21.500Z,3
2023-05-15T05:57:28.322Z,3
2023-05-15T05:58:35.282Z,2
2023-05-15T05:59:42.200Z,3
2023-05-15T06:00:49.011Z,3
2023-05-15T06:01:55.778Z,3
2023-05-15T06:03:02.773Z,3
2023-05-15T06:04:09.562Z,3
2023-05-15T06:05:16.308Z,3
2023-05-15T06:06:32.085Z,3
2023-05-15T06:07:38.932Z,3
2023-05-15T06:08:54.945Z,3
2023-05-15T06:09:59.493Z,3
2023-05-15T06:11:06.342Z,2
2023-05-15T06:12:13.155Z,3
2023-05-15T06:13:26.293Z,3
2023-05-15T06:14:33.160Z,3
2023-05-15T06:15:39.911Z,3
2023-05-15T06:16:46.897Z,3
2023-05-15T06:17:53.728Z,2
2023-05-15T06:19:00.949Z,3
2023-05-15T06:20:07.729Z,2
2023-05-15T06:21:24.590Z,3
2023-05-15T06:22:31.391Z,3
2023-05-15T06:23:41.016Z,2
2023-05-15T06:25:06.601Z,2
2023-05-15T06:26:16.433Z,3
2023-05-15T06:27:58.322Z,3
2023-05-15T06:29:05.205Z,3
2023-05-15T06:30:17.020Z,3
2023-05-15T06:31:24.165Z,2
2023-05-15T06:32:32.005Z,2
2023-05-15T06:33:47.297Z,3
2023-05-15T06:34:54.308Z,3
2023-05-15T06:36:01.259Z,2
2023-05-15T06:37:08.249Z,3
2023-05-15T06:38:15.078Z,3
2023-05-15T06:39:21.898Z,3
2023-05-15T06:40:49.225Z,2
2023-05-15T06:41:56.149Z,3
2023-05-15T06:43:02.953Z,3
2023-05-15T06:44:37.594Z,3
2023-05-15T06:45:42.884Z,3
2023-05-15T06:46:48.108Z,3
2023-05-15T06:47:52.979Z,3
2023-05-15T06:49:00.901Z,3
2023-05-15T06:50:07.765Z,3
2023-05-15T06:51:15.993Z,4
2023-05-15T06:52:22.833Z,4
2023-05-15T06:53:29.778Z,4
2023-05-15T06:54:47.245Z,4
2023-05-15T06:55:54.941Z,3
2023-05-15T06:57:01.845Z,4
2023-05-15T06:58:31.077Z,4
2023-05-15T06:59:37.963Z,4
2023-05-15T07:00:45.009Z,4
2023-05-15T07:01:51.926Z,4
2023-05-15T07:02:58.931Z,4
2023-05-15T07:04:06.638Z,4
2023-05-15T07:05:14.347Z,4
2023-05-15T07:06:20.978Z,3
2023-05-15T07:07:29.093Z,2
2023-05-15T07:08:37.145Z,3
2023-05-15T07:09:43.999Z,2
2023-05-15T07:10:50.863Z,3
2023-05-15T07:11:57.826Z,3
2023-05-15T07:13:04.735Z,3
2023-05-15T07:14:17.499Z,3
2023-05-15T07:15:24.407Z,3
2023-05-15T07:16:31.731Z,3
2023-05-15T07:17:40.467Z,3
2023-05-15T07:18:47.532Z,2
2023-05-15T07:19:54.227Z,3
2023-05-15T07:21:01.060Z,3
2023-05-15T07:22:08.005Z,3
2023-05-15T07:23:46.025Z,3
2023-05-15T07:24:52.890Z,3
2023-05-15T07:25:59.760Z,3
2023-05-15T07:27:06.642Z,3
2023-05-15T07:28:13.457Z,3
2023-05-15T07:29:20.260Z,4
2023-05-15T07:30:27.401Z,3
2023-05-15T07:31:36.197Z,3
2023-05-15T07:32:43.004Z,4
2023-05-15T07:33:49.900Z,5
2023-05-15T07:35:03.781Z,5
2023-05-15T07:36:10.611Z,6
2023-05-15T07:37:17.538Z,6
2023-05-15T07:38:28.197Z,6
2023-05-15T07:39:34.998Z,5
2023-05-15T07:40:42.862Z,5
2023-05-15T07:41:49.749Z,5
2023-05-15T07:42:56.742Z,5
2023-05-15T07:44:03.621Z,4
2023-05-15T07:45:10.950Z,5
2023-05-15T07:46:17.752Z,5
2023-05-15T07:47:24.640Z,5
2023-05-15T07:48:31.471Z,5
2023-05-15T07:49:38.272Z,5
2023-05-15T07:50:45.364Z,5
2023-05-15T07:51:51.869Z,5
2023-05-15T07:52:58.705Z,5
2023-05-15T07:54:05.628Z,5
2023-05-15T07:55:12.316Z,5
2023-05-15T07:56:19.167Z,5
2023-05-15T07:57:25.974Z,6
2023-05-15T07:58:32.809Z,6
2023-05-15T07:59:39.792Z,7
2023-05-15T08:00:46.579Z,6
2023-05-15T08:01:53.361Z,7
2023-05-15T08:03:00.352Z,7
2023-05-15T08:04:07.107Z,6
2023-05-15T08:06:09.498Z,6
2023-05-15T08:07:16.220Z,7
2023-05-15T08:08:48.350Z,7
2023-05-15T08:09:55.256Z,6
2023-05-15T08:11:02.132Z,6
2023-05-15T08:12:08.923Z,7
2023-05-15T08:13:18.725Z,7
2023-05-15T08:14:25.733Z,6
2023-05-15T08:15:32.609Z,6
2023-05-15T08:16:39.398Z,6
2023-05-15T08:17:46.187Z,5
2023-05-15T08:18:53.125Z,6
2023-05-15T08:19:59.777Z,6
2023-05-15T08:21:06.767Z,5
2023-05-15T08:22:13.634Z,4
2023-05-15T08:23:20.334Z,4
2023-05-15T08:24:27.122Z,5
2023-05-15T08:25:36.861Z,5
2023-05-15T08:26:43.683Z,4
2023-05-15T08:27:50.423Z,5
2023-05-15T08:28:57.230Z,5
2023-05-15T08:30:11.745Z,4
2023-05-15T08:31:18.645Z,4
2023-05-15T08:32:25.708Z,4
2023-05-15T08:33:32.558Z,4
2023-05-15T08:34:39.485Z,4
2023-05-15T08:35:46.252Z,3
2023-05-15T08:36:52.990Z,3
2023-05-15T08:38:00.823Z,3
2023-05-15T08:39:07.654Z,3
2023-05-15T08:40:14.550Z,3
2023-05-15T08:41:32.871Z,3
2023-05-15T08:42:32.788Z,3
2023-05-15T08:43:43.007Z,3
2023-05-15T08:44:49.922Z,2
2023-05-15T08:45:56.687Z,3
2023-05-15T08:47:03.590Z,2
2023-05-15T08:48:13.063Z,3
2023-05-15T08:49:30.666Z,4
2023-05-15T08:50:42.646Z,3
2023-05-15T08:51:49.432Z,3
2023-05-15T08:52:57.130Z,4
2023-05-15T08:54:04.070Z,4
2023-05-15T08:55:10.840Z,4
2023-05-15T08:56:17.592Z,4
2023-05-15T08:57:24.317Z,5
2023-05-15T08:58:32.245Z,6
2023-05-15T08:59:39.097Z,6
2023-05-15T09:00:45.885Z,7
2023-05-15T09:01:52.742Z,5
2023-05-15T09:02:59.549Z,5
2023-05-15T09:04:06.319Z,5
2023-05-15T09:05:13.068Z,5
2023-05-15T09:06:19.909Z,5
2023-05-15T09:07:26.701Z,5
2023-05-15T09:08:33.426Z,5
2023-05-15T09:09:40.248Z,4
2023-05-15T09:10:49.707Z,4
2023-05-15T09:11:56.642Z,4
2023-05-15T09:13:03.425Z,4
2023-05-15T09:14:10.128Z,5
2023-05-15T09:15:16.905Z,5
2023-05-15T09:16:26.386Z,4
2023-05-15T09:17:33.307Z,4
2023-05-15T09:18:39.973Z,4
2023-05-15T09:19:46.751Z,4
2023-05-15T09:20:56.035Z,4
2023-05-15T09:22:00.349Z,4
2023-05-15T09:23:17.209Z,4
2023-05-15T09:24:26.814Z,4
2023-05-15T09:25:33.625Z,4
2023-05-15T09:26:46.180Z,4
2023-05-15T09:28:03.130Z,4
2023-05-15T09:29:10.030Z,4
2023-05-15T09:30:19.597Z,4
2023-05-15T09:31:26.468Z,3
2023-05-15T09:32:33.073Z,3
2023-05-15T09:33:40.232Z,3
2023-05-15T09:34:47.104Z,3
2023-05-15T09:35:53.951Z,3
2023-05-15T09:37:00.694Z,3
2023-05-15T09:38:07.604Z,2
2023-05-15T09:39:14.425Z,2
2023-05-15T09:40:21.319Z,2
2023-05-15T09:41:28.215Z,3
2023-05-15T09:42:35.157Z,3
2023-05-15T09:46:32.912Z,2
2023-05-15T09:47:40.189Z,3
2023-05-15T09:48:47.443Z,2
2023-05-15T09:49:57.817Z,2
2023-05-15T09:51:05.145Z,2
2023-05-15T09:52:17.565Z,2
2023-05-15T09:53:25.002Z,3
2023-05-15T09:54:32.006Z,3
2023-05-15T09:55:39.192Z,2
2023-05-15T09:56:49.548Z,2
2023-05-15T09:57:56.896Z,2
2023-05-15T09:59:07.295Z,2
2023-05-15T10:00:19.613Z,2
2023-05-15T10:01:26.623Z,2
2023-05-15T10:02:47.364Z,2
2023-05-15T10:04:13.827Z,2
2023-05-15T10:05:26.015Z,2
2023-05-15T10:06:37.144Z,2
2023-05-15T10:07:47.665Z,2
2023-05-15T10:09:12.792Z,2
2023-05-15T10:10:19.885Z,2
2023-05-15T10:11:26.948Z,2
2023-05-15T10:12:40.118Z,2
2023-05-15T10:13:47.212Z,2
2023-05-15T10:14:54.725Z,2
2023-05-15T10:16:02.005Z,2
2023-05-15T10:17:09.352Z,2
2023-05-15T10:18:16.580Z,2
2023-05-15T10:19:24.095Z,2
2023-05-15T10:20:31.482Z,2
2023-05-15T10:21:39.066Z,2
2023-05-15T10:23:12.812Z,2
2023-05-15T10:24:20.214Z,2
2023-05-15T10:25:27.546Z,2
2023-05-15T10:26:34.841Z,2
2023-05-15T10:27:45.170Z,2
2023-05-15T10:28:52.501Z,2
2023-05-15T10:29:59.603Z,2
2023-05-15T10:31:06.873Z,2
2023-05-15T10:32:13.984Z,2
2023-05-15T10:33:21.340Z,2
2023-05-15T10:34:28.856Z,2
2023-05-15T10:35:43.217Z,2
2023-05-15T10:36:56.598Z,2
2023-05-15T10:38:06.140Z,2
2023-05-15T10:39:20.313Z,2
2023-05-15T10:40:39.390Z,2
2023-05-15T10:41:46.861Z,2
2023-05-15T10:42:53.938Z,2
2023-05-15T10:44:01.471Z,2
2023-05-15T10:45:08.799Z,2
2023-05-15T10:46:15.945Z,2
2023-05-15T10:47:23.287Z,2
2023-05-15T10:48:30.364Z,2
2023-05-15T10:50:01.559Z,2
2023-05-15T10:51:23.469Z,1
2023-05-15T10:52:39.428Z,2
2023-05-15T10:53:46.740Z,2
2023-05-15T10:55:01.579Z,2
2023-05-15T10:56:16.883Z,2
2023-05-15T10:57:23.615Z,2
2023-05-15T10:58:33.489Z,2
2023-05-15T10:59:40.948Z,2
2023-05-15T11:00:48.422Z,2
2023-05-15T11:01:56.168Z,1
2023-05-15T11:03:14.110Z,1
2023-05-15T11:04:21.940Z,2
2023-05-15T11:05:29.595Z,2
2023-05-15T11:06:36.478Z,2
2023-05-15T11:07:46.213Z,2
2023-05-15T11:09:03.557Z,1
2023-05-15T11:10:21.090Z,1
2023-05-15T11:11:31.239Z,1
2023-05-15T11:12:48.561Z,1
2023-05-15T11:13:59.135Z,1
2023-05-15T11:15:08.812Z,1
2023-05-15T11:16:16.665Z,1
2023-05-15T11:17:29.059Z,1
2023-05-15T11:18:36.664Z,1
2023-05-15T11:19:43.962Z,1
2023-05-15T11:20:54.046Z,1
2023-05-15T11:22:01.213Z,1
2023-05-15T11:23:11.363Z,1
2023-05-15T11:24:18.467Z,1
2023-05-15T11:25:25.683Z,1
2023-05-15T11:26:33.080Z,1
2023-05-15T11:27:40.336Z,1
2023-05-15T11:28:47.406Z,1
2023-05-15T11:29:54.734Z,1
2023-05-15T11:31:12.189Z,1
2023-05-15T11:32:19.531Z,1
2023-05-15T11:33:36.978Z,1
2023-05-15T11:34:44.151Z,1
2023-05-15T11:35:51.336Z,2
2023-05-15T11:37:01.417Z,1
2023-05-15T11:38:08.854Z,1
2023-05-15T11:39:15.891Z,1
2023-05-15T11:40:23.245Z,2
2023-05-15T11:41:30.141Z,1
2023-05-15T11:42:37.470Z,1
2023-05-15T11:43:45.051Z,1
2023-05-15T11:44:52.686Z,1
2023-05-15T11:45:59.857Z,1
2023-05-15T11:47:06.792Z,1
2023-05-15T11:48:13.852Z,1
2023-05-15T11:49:21.217Z,1
2023-05-15T11:50:28.452Z,1
2023-05-15T11:51:35.791Z,1
2023-05-15T11:52:42.868Z,1
2023-05-15T11:53:50.366Z,1
2023-05-15T11:54:57.467Z,1
2023-05-15T11:56:04.845Z,1
2023-05-15T11:57:11.946Z,1
2023-05-15T11:58:19.078Z,1
2023-05-15T11:59:26.493Z,1
2023-05-15T12:00:33.908Z,1
2023-05-15T12:01:41.369Z,1
2023-05-15T12:02:48.604Z,1
2023-05-15T12:03:55.881Z,1
2023-05-15T12:05:02.853Z,1
2023-05-15T12:07:09.047Z,1
2023-05-15T12:08:16.416Z,1
2023-05-15T12:09:23.653Z,1
2023-05-15T12:10:31.020Z,1
2023-05-15T12:11:38.271Z,1
2023-05-15T12:12:45.272Z,1
2023-05-15T12:13:52.486Z,1
2023-05-15T12:14:59.813Z,1
2023-05-15T12:16:07.189Z,1
2023-05-15T12:17:14.835Z,1
2023-05-15T12:18:21.993Z,1
2023-05-15T12:19:29.419Z,1
2023-05-15T12:20:36.787Z,1
2023-05-15T12:21:44.824Z,1
2023-05-15T12:22:52.137Z,1
2023-05-15T12:24:07.483Z,0
2023-05-15T12:25:30.784Z,1
2023-05-15T12:27:04.964Z,1
2023-05-15T12:28:13.589Z,0
2023-05-15T12:29:22.094Z,1
2023-05-15T12:30:31.279Z,1
2023-05-15T12:31:40.669Z,1
2023-05-15T12:33:03.081Z,1
2023-05-15T12:34:20.169Z,1
2023-05-15T12:35:37.961Z,1
2023-05-15T12:36:44.812Z,1
2023-05-15T12:37:51.690Z,1
2023-05-15T12:38:58.568Z,1
2023-05-15T12:40:08.947Z,1
2023-05-15T12:41:17.815Z,1
2023-05-15T12:42:25.910Z,1
2023-05-15T12:43:32.994Z,1
2023-05-15T12:44:41.671Z,1
2023-05-15T12:45:49.470Z,0
2023-05-15T12:46:56.941Z,1
2023-05-15T12:48:04.104Z,1
2023-05-15T12:49:11.502Z,0
2023-05-15T12:50:18.825Z,1
2023-05-15T12:51:26.077Z,1
2023-05-15T12:52:33.097Z,1
2023-05-15T12:53:40.699Z,0
2023-05-15T12:54:48.264Z,1
2023-05-15T12:55:55.910Z,1
2023-05-15T12:57:03.356Z,0
2023-05-15T12:58:10.422Z,1
2023-05-15T12:59:18.171Z,0
2023-05-15T13:00:28.114Z,0
2023-05-15T13:01:37.424Z,0
2023-05-15T13:02:44.607Z,1
2023-05-15T13:03:54.038Z,1
2023-05-15T13:05:00.782Z,1
2023-05-15T13:06:07.940Z,1
2023-05-15T13:07:14.856Z,1
2023-05-15T13:08:21.930Z,1
2023-05-15T13:09:29.089Z,1
2023-05-15T13:10:36.168Z,1
2023-05-15T13:11:43.170Z,1
2023-05-15T13:12:50.350Z,1
2023-05-15T13:13:57.565Z,1
2023-05-15T13:15:04.647Z,1
2023-05-15T13:16:12.018Z,1
2023-05-15T13:17:28.917Z,0
2023-05-15T13:18:37.340Z,1
2023-05-15T13:19:50.526Z,1
2023-05-15T13:21:01.524Z,1
2023-05-15T13:22:16.559Z,1
2023-05-15T13:23:24.216Z,1
2023-05-15T13:24:31.594Z,1
2023-05-15T13:25:38.932Z,1
2023-05-15T13:26:45.907Z,1
2023-05-15T13:27:53.010Z,1
2023-05-15T13:29:03.237Z,1
2023-05-15T13:30:10.334Z,1
2023-05-15T13:31:17.501Z,1
2023-05-15T13:32:24.478Z,1
2023-05-15T13:33:31.968Z,1
2023-05-15T13:34:39.369Z,1
2023-05-15T13:35:46.272Z,1
2023-05-15T13:36:53.462Z,1
2023-05-15T13:38:00.841Z,1
2023-05-15T13:39:08.332Z,1
2023-05-15T13:40:15.486Z,1
2023-05-15T13:41:22.536Z,1
2023-05-15T13:42:29.596Z,1
2023-05-15T13:43:36.848Z,1
2023-05-15T13:44:44.129Z,1
2023-05-15T13:45:51.377Z,1
2023-05-15T13:46:58.455Z,1
2023-05-15T13:48:23.303Z,1
2023-05-15T13:49:30.877Z,1
2023-05-15T13:50:38.258Z,1
2023-05-15T13:51:45.725Z,1
2023-05-15T13:52:53.304Z,1
2023-05-15T13:54:00.440Z,1
2023-05-15T13:55:07.454Z,1
2023-05-15T13:56:14.730Z,1
2023-05-15T13:57:21.954Z,1
2023-05-15T13:58:29.216Z,1
2023-05-15T13:59:36.369Z,1
2023-05-15T14:00:44.106Z,1
2023-05-15T14:01:51.107Z,1
2023-05-15T14:02:59.269Z,1
2023-05-15T14:04:06.677Z,1
2023-05-15T14:05:14.253Z,0
2023-05-15T14:06:21.376Z,0
2023-05-15T14:07:29.158Z,0
2023-05-15T14:08:37.044Z,1
2023-05-15T14:09:44.613Z,0
2023-05-15T14:10:51.742Z,1
2023-05-15T14:12:01.167Z,0
2023-05-15T14:13:10.291Z,1
2023-05-15T14:14:17.491Z,0
2023-05-15T14:15:28.129Z,0
2023-05-15T14:16:35.534Z,1
2023-05-15T14:17:43.003Z,1
2023-05-15T14:18:49.968Z,1
2023-05-15T14:19:56.964Z,1
2023-05-15T14:21:04.688Z,1
2023-05-15T14:22:11.926Z,1
2023-05-15T14:23:19.037Z,1
2023-05-15T14:24:26.341Z,1
2023-05-15T14:25:33.774Z,1
2023-05-15T14:26:41.228Z,1
2023-05-15T14:27:57.598Z,1
2023-05-15T14:29:05.085Z,1
2023-05-15T14:30:12.301Z,1
2023-05-15T14:31:19.758Z,1
2023-05-15T14:32:26.765Z,1
2023-05-15T14:33:34.089Z,1
2023-05-15T14:34:41.340Z,1
2023-05-15T14:35:48.317Z,1
2023-05-15T14:36:55.822Z,1
2023-05-15T14:38:03.058Z,1
2023-05-15T14:39:10.130Z,1
2023-05-15T14:40:17.596Z,1
2023-05-15T14:41:24.794Z,1
2023-05-15T14:42:32.034Z,1
2023-05-15T14:43:39.159Z,1
2023-05-15T14:44:46.351Z,1
2023-05-15T14:45:53.589Z,0
2023-05-15T14:47:00.517Z,1
2023-05-15T14:48:07.711Z,1
2023-05-15T14:49:14.955Z,1
2023-05-15T14:50:22.077Z,1
2023-05-15T14:51:29.310Z,1
2023-05-15T14:52:36.621Z,1
2023-05-15T14:53:46.835Z,1
2023-05-15T14:55:07.671Z,1
2023-05-15T14:56:08.634Z,1
2023-05-15T14:57:16.051Z,1
2023-05-15T14:58:23.271Z,0
2023-05-15T14:59:30.376Z,0
2023-05-15T15:00:37.646Z,0
2023-05-15T15:01:45.310Z,0
2023-05-15T15:02:52.504Z,0
2023-05-15T15:03:59.540Z,0
2023-05-15T15:05:06.901Z,0
2023-05-15T15:06:14.270Z,0
2023-05-15T15:07:22.909Z,0
2023-05-15T15:08:30.072Z,0
2023-05-15T15:09:37.275Z,0
2023-05-15T15:10:46.078Z,1
2023-05-15T15:11:53.557Z,0
2023-05-15T15:13:00.514Z,0
2023-05-15T15:14:07.713Z,0
2023-05-15T15:15:14.774Z,1
2023-05-15T15:16:21.810Z,0
2023-05-15T15:17:28.887Z,0
2023-05-15T15:18:35.982Z,0
2023-05-15T15:19:42.937Z,0
2023-05-15T15:20:49.992Z,0
2023-05-15T15:21:57.286Z,1
2023-05-15T15:23:04.289Z,1
2023-05-15T15:24:11.474Z,1
2023-05-15T15:25:18.743Z,0
2023-05-15T15:26:26.014Z,1
2023-05-15T15:27:33.312Z,0
2023-05-15T15:28:40.318Z,0
2023-05-15T15:29:47.471Z,1
2023-05-15T15:30:54.774Z,0
2023-05-15T15:32:02.017Z,1
2023-05-15T15:33:09.299Z,1
2023-05-15T15:34:16.587Z,1
2023-05-15T15:35:23.689Z,1
2023-05-15T15:36:31.965Z,1
2023-05-15T15:37:39.445Z,1
2023-05-15T15:38:46.657Z,1
2023-05-15T15:39:53.731Z,1
2023-05-15T15:41:00.909Z,1
2023-05-15T15:42:08.064Z,1
2023-05-15T15:43:15.319Z,1
2023-05-15T15:44:22.686Z,1
2023-05-15T15:45:29.918Z,0
2023-05-15T15:46:37.048Z,1
2023-05-15T15:47:44.423Z,0
2023-05-15T15:48:51.566Z,1
2023-05-15T15:49:58.844Z,1
2023-05-15T15:51:07.232Z,1
2023-05-15T15:52:14.225Z,1
2023-05-15T15:53:21.355Z,1
2023-05-15T15:54:28.489Z,1
2023-05-15T15:55:35.601Z,1
2023-05-15T15:56:42.597Z,1
2023-05-15T15:57:49.629Z,1
2023-05-15T15:58:56.962Z,1
2023-05-15T16:00:04.020Z,1
2023-05-15T16:01:11.582Z,1
2023-05-15T16:02:19.018Z,0
2023-05-15T16:03:25.992Z,0
2023-05-15T16:04:33.176Z,0
2023-05-15T16:05:40.085Z,0
2023-05-15T16:06:47.122Z,0
2023-05-15T16:07:54.432Z,1
2023-05-15T16:09:01.280Z,0
2023-05-15T16:10:12.175Z,0
2023-05-15T16:11:14.917Z,0
2023-05-15T16:12:21.644Z,0
2023-05-15T16:13:28.421Z,0
2023-05-15T16:14:35.217Z,0
2023-05-15T16:15:42.021Z,0
2023-05-15T16:16:48.919Z,0
2023-05-15T16:17:55.625Z,0
2023-05-15T16:19:02.576Z,0
2023-05-15T16:20:09.404Z,1
2023-05-15T16:21:16.302Z,1
2023-05-15T16:22:23.140Z,1
2023-05-15T16:23:29.821Z,1
2023-05-15T16:24:36.680Z,1
2023-05-15T16:25:43.531Z,1
2023-05-15T16:26:50.343Z,1
2023-05-15T16:27:57.242Z,2
2023-05-15T16:29:03.988Z,2
2023-05-15T16:30:10.788Z,1
2023-05-15T16:31:17.792Z,1
2023-05-15T16:32:26.603Z,1
2023-05-15T16:33:33.371Z,1
2023-05-15T16:34:40.216Z,2
2023-05-15T16:35:46.963Z,2
2023-05-15T16:36:53.712Z,2
2023-05-15T16:38:00.489Z,2
2023-05-15T16:39:07.378Z,2
2023-05-15T16:40:14.258Z,3
2023-05-15T16:41:20.971Z,2
2023-05-15T16:42:27.731Z,2
2023-05-15T16:43:34.566Z,2
2023-05-15T16:44:41.371Z,2
2023-05-15T16:45:48.226Z,1
2023-05-15T16:46:55.056Z,1
2023-05-15T16:48:01.870Z,1
2023-05-15T16:49:08.737Z,1
2023-05-15T16:50:15.576Z,2
2023-05-15T16:51:22.406Z,1
2023-05-15T16:52:29.178Z,1
2023-05-15T16:53:35.981Z,1
2023-05-15T16:54:42.722Z,1
2023-05-15T16:55:49.552Z,1
2023-05-15T16:56:56.455Z,1
2023-05-15T16:58:03.243Z,1
2023-05-15T16:59:09.992Z,1
2023-05-15T17:00:16.817Z,1
2023-05-15T17:01:23.702Z,1
2023-05-15T17:02:30.536Z,1
2023-05-15T17:03:37.295Z,1
2023-05-15T17:04:44.121Z,1